Flight Track Log - Related Links

Times and Time Zones

All times are in EDT time to prevent confusion due to time zone crossing. See the UAL5900 flight status page for this flight to view local times or setup timezone preferences in your user account.

Time Position Orientation Groundspeed Altitude Reporting Facility
EDT Latitude Longitude Course Direction KTS MPH feet Rate Location/Type
Fri 19:04:24 41.9339 -87.9100 170° South 188 216 2,400  Level Chicago Center
Fri 19:05:27 41.8681 -87.8947 170° South 199 229 4,600 2,032 Climbing Chicago Center
Fri 19:06:28 41.7975 -87.8861 175° South 231 266 6,600 1,887 Climbing Chicago Center
Fri 19:07:31 41.7239 -87.8853 180° South 261 300 8,500 2,064 Climbing Chicago Center
Fri 19:08:33 41.6461 -87.8836 179° South 275 316 10,900 2,081 Climbing Chicago Center
Fri 19:09:35 41.5686 -87.8650 170° South 285 328 12,800 1,415 Climbing Chicago Center
Fri 19:10:36 41.4850 -87.8286 162° South 310 357 13,800 829 Climbing Chicago Center
Fri 19:11:38 41.3917 -87.7894 163° South 342 394 14,500 1,016 Climbing Chicago Center
Fri 19:12:40 41.2700 -87.7703 173° South 364 419 15,900 1,210 Climbing Chicago Center
Fri 19:13:42 41.1689 -87.7572 174° South 364 419 17,000 1,161 Climbing Chicago Center
Fri 19:14:44 41.0647 -87.7422 174° South 371 427 18,300 1,161 Climbing Chicago Center
Fri 19:15:46 40.9589 -87.7281 174° South 380 437 19,400 1,016 Climbing Chicago Center
Fri 19:16:48 40.8511 -87.7117 173° South 387 445 20,400 960 Climbing Chicago Center
Fri 19:17:51 40.7417 -87.6967 174° South 394 453 21,400 1,104 Climbing Chicago Center
Fri 19:18:53 40.6094 -87.6797 174° South 399 459 22,700 1,306 Climbing Chicago Center
Fri 19:19:55 40.5000 -87.6653 174° South 397 457 24,100 1,355 Climbing Chicago Center
Fri 19:20:57 40.3944 -87.6508 174° South 386 444 25,500 1,366 Climbing Chicago Center
Fri 19:21:58 40.2894 -87.6367 174° South 381 438 26,900 1,317 Climbing Chicago Center
Fri 19:23:00 40.1867 -87.6222 174° South 373 429 28,200 1,016 Climbing Chicago Center
Fri 19:24:02 40.0858 -87.6083 174° South 368 423 29,000 387 Climbing Chicago Center
Fri 19:25:04 39.9542 -87.5897 174° South 396 456 29,000  Level Chicago Center
Fri 19:26:06 39.8456 -87.5761 175° South 418 481 29,000  Level Chicago Center
Fri 19:27:08 39.7236 -87.5606 174° South 435 501 29,000  Level Chicago Center
Fri 19:28:10 39.5947 -87.5419 174° South 442 509 29,000  Level Chicago Center
Fri 19:29:12 39.4756 -87.4856 160° South 459 528 29,000  Level Chicago Center
Fri 19:30:14 39.3314 -87.4528 170° South 451 519 29,000  Level Chicago Center
Fri 19:31:16 39.2081 -87.4406 176° South 445 512 29,000  Level Chicago Center
Fri 19:32:18 39.1025 -87.4244 173° South 439 505 29,000  Level Chicago Center
Fri 19:33:31 38.9392 -87.4133 177° South 442 509 29,000  Level Indianapolis Center
Fri 19:34:33 38.8167 -87.4011 176° South 440 506 29,000  Level Indianapolis Center
Fri 19:35:35 38.6953 -87.3886 175° South 439 505 29,000  Level Indianapolis Center
Fri 19:36:37 38.5511 -87.3750 176° South 435 501 29,000  Level Indianapolis Center
Fri 19:37:38 38.4308 -87.3617 175° South 434 499 29,000  Level Indianapolis Center
Fri 19:38:40 38.3119 -87.3503 176° South 434 499 29,000  Level Indianapolis Center
Fri 19:39:42 38.1933 -87.3400 176° South 433 498 29,000  Level Indianapolis Center
Fri 19:40:44 38.0744 -87.3278 175° South 431 496 29,000  Level Indianapolis Center
Fri 19:41:46 37.9544 -87.3144 175° South 434 499 29,000  Level Indianapolis Center
Fri 19:42:47 37.8119 -87.3014 176° South 428 493 29,000 -195 Level Indianapolis Center
Fri 19:43:49 37.7019 -87.2919 176° South 423 487 28,600 -1,258 Descending Indianapolis Center
Fri 19:44:51 37.5836 -87.2797 175° South 423 487 26,400 -2,176 Descending Indianapolis Center
Fri 19:45:20 37.5247 -87.2742 176° South 426 490 25,300 -2,225 Descending Memphis Center
Fri 19:46:20 37.4078 -87.2631 176° South 426 490 23,100 -2,162 Descending Memphis Center
Fri 19:47:11 37.2950 -87.2439 172° South 428 493 21,300 -1,050 Descending Memphis Center
Fri 19:48:20 37.1647 -87.1994 165° South 426 490 21,000 -472 Descending Memphis Center
Fri 19:49:18 37.0597 -87.1750 169° South 414 476 20,300 -1,563 Descending Memphis Center
Fri 19:50:19 36.9422 -87.1383 166° South 416 479 17,900 -2,311 Descending Memphis Center
Fri 19:51:20 36.8308 -87.1039 166° South 411 473 15,600 -2,182 Descending Memphis Center
Fri 19:52:20 36.7292 -87.0458 155° Southeast 411 473 13,500 -2,050 Descending Memphis Center
Fri 19:53:20 36.6297 -86.9853 154° Southeast 402 463 11,500 -1,550 Descending Memphis Center
Fri 19:54:20 36.5464 -86.9139 145° Southeast 376 433 10,400 -1,300 Descending Memphis Center
Fri 19:55:20 36.4836 -86.8339 134° Southeast 334 384 8,900 -1,500 Descending Memphis Center
Fri 19:56:20 36.4297 -86.7667 135° Southeast 322 371 7,400 -1,600 Descending Memphis Center
Fri 19:57:20 36.3733 -86.6969 135° Southeast 295 339 5,700 -1,650 Descending Memphis Center
Fri 19:58:20 36.3114 -86.6406 144° Southeast 272 313 4,100 -1,339 Descending Memphis Center
Fri 19:59:21 36.2486 -86.6306 173° South 228 262 3,000 -1,091 Descending Memphis Center
Fri 20:00:21 36.1992 -86.6533 200° South 207 238 1,900 -908 Descending Memphis Center
Fri 20:01:20 36.1622 -86.6706 201° Southwest 163 188 1,200 -555 Descending Memphis Center
Fri 20:02:20 36.1208 -86.6853 196° South 151 174 800 -400 Descending Memphis Center
Fri 20:04:00 36.1245 -86.6782 202° Southwest  Level Estimated
Fri 20:11:00 36.1245 -86.6782 90° East  Level Estimated
Fri 20:12:00 36.1245 -86.6782 90° East  Level Estimated
Fri 20:13:00 36.1245 -86.6782 90° East  Level Estimated
Fri 20:14:00 36.1245 -86.6782 90° East  Level Estimated
Fri 20:15:00 36.1245 -86.6782 90° East  Level Estimated
Fri 20:16:00 36.1245 -86.6782 90° East  Level Estimated
Fri 20:17:00 36.1245 -86.6782 90° East  Level Estimated
Fri 20:18:00 36.1245 -86.6782 90° East  Level Estimated
Fri 20:19:00 36.1245 -86.6782 90° East  Level Estimated
Fri 20:20:00 36.1245 -86.6782 90° East  Level Estimated
Fri 20:21:00 36.1245 -86.6782 90° East  Level Estimated
Fri 20:22:00 36.1245 -86.6782 90° East  Level Estimated
Fri 20:23:00 36.1245 -86.6782 90° East  Level Estimated

Login

Don't have an account? Register now (free) for customized features, flight alerts, and more!